• Join FlightAware (Why Join?)
  • Login
  • US Flag 
09:47AM EDT


 

Airport Tracker/Info


-or-


 

Live Flight TrackerFlight Track Log ✈ N12SN ✈ 05-May-2013 ✈ KFNT - KBKL

Flight Track Log - Related Links

Times and Time Zones

All times are in EDT time to prevent confusion due to time zone crossing. See the N12SN flight status page for this flight to view local times or setup timezone preferences in your user account.

Time Position Orientation Groundspeed Altitude Reporting Facility
EDT Latitude Longitude Course Direction KTS MPH feet Rate Location/Type
10:44AM 42.9578 -83.6244 62° Northeast 149 171 3,300  Level Cleveland Center
10:45AM 42.9653 -83.5794 77° East 148 170 4,100 840 Climbing Cleveland Center
10:46AM 42.9708 -83.5228 82° East 143 165 5,000 360 Climbing Cleveland Center
10:47AM 42.9536 -83.4597 110° East 159 183 5,000  Level Cleveland Center
10:48AM 42.7607 -83.4432 100° East  Level Estimated
10:48AM 42.9403 -83.4108 110° East 158 182 5,000  Level Cleveland Center
10:49AM 42.7845 -83.3832 62° Northeast  Level FlightAware Approximate
10:49AM 42.9208 -83.3533 115° Southeast 154 177 5,000  Level Cleveland Center
10:50AM 42.8883 -83.3178 141° Southeast 151 174 5,000  Level Cleveland Center
10:51AM 42.8581 -83.2825 139° Southeast 151 174 5,000  Level Cleveland Center
10:52AM 42.8214 -83.2411 140° Southeast 150 173 5,000  Level Cleveland Center
10:53AM 42.7911 -83.2003 135° Southeast 152 175 5,000  Level Cleveland Center
10:54AM 42.7625 -83.1681 140° Southeast 153 176 5,000  Level Cleveland Center
10:55AM 42.7300 -83.1272 137° Southeast 153 176 5,000  Level Cleveland Center
10:56AM 42.6997 -83.0919 139° Southeast 152 175 5,000  Level Cleveland Center
10:57AM 42.6611 -83.0453 138° Southeast 154 177 5,000  Level Cleveland Center
10:57AM 42.6508 -83.0336 140° Southeast 154 177 5,000  Level Cleveland Center
10:58AM 42.6306 -83.0072 136° Southeast 155 178 5,000  Level Cleveland Center
10:58AM 42.6203 -82.9956 140° Southeast 154 177 5,000  Level Cleveland Center
10:59AM 42.6000 -82.9694 137° Southeast 153 176 5,000  Level Cleveland Center
10:59AM 42.5858 -82.9547 143° Southeast 154 177 5,000  Level Cleveland Center
11:00AM 42.5656 -82.9286 137° Southeast 157 181 5,000  Level Cleveland Center
11:00AM 42.5553 -82.9169 140° Southeast 154 177 5,000  Level Cleveland Center
11:01AM 42.5228 -82.8764 137° Southeast 164 189 5,000  Level Cleveland Center
11:02AM 42.4883 -82.8331 137° Southeast 164 189 5,000  Level Cleveland Center
11:03AM 42.4556 -82.7953 140° Southeast 164 189 5,000  Level Cleveland Center
11:04AM 42.4208 -82.7544 139° Southeast 164 189 5,000  Level Cleveland Center
11:05AM 42.3861 -82.7142 139° Southeast 164 189 5,000  Level Cleveland Center
11:06AM 42.3536 -82.6736 137° Southeast 159 183 5,000  Level Cleveland Center
11:07AM 42.3211 -82.6331 137° Southeast 159 183 5,000  Level Cleveland Center
11:08AM 42.2864 -82.5928 139° Southeast 159 183 5,000  Level Cleveland Center
11:09AM 42.2517 -82.5494 137° Southeast 159 183 5,000  Level Cleveland Center
11:10AM 42.2167 -82.5119 142° Southeast 159 183 5,000  Level Cleveland Center
11:11AM 42.1819 -82.4689 137° Southeast 159 183 5,000  Level Cleveland Center
11:12AM 42.1494 -82.4258 136° Southeast 159 183 5,000  Level Cleveland Center
11:13AM 42.1167 -82.3886 140° Southeast 159 183 5,000  Level Cleveland Center
11:14AM 42.0819 -82.3486 139° Southeast 159 183 5,000  Level Cleveland Center
11:15AM 42.0469 -82.3083 139° Southeast 159 183 5,000  Level Cleveland Center
11:15AM 42.0389 -82.2997 142° Southeast 163 188 5,000  Level Cleveland Center
11:16AM 42.0144 -82.2656 134° Southeast 159 183 5,000  Level Cleveland Center
11:17AM 41.9794 -82.2283 142° Southeast 159 183 5,000  Level Cleveland Center
11:18AM 41.9508 -82.1858 132° Southeast 159 183 5,000  Level Cleveland Center
11:18AM 41.9342 -82.1797 165° South 162 186 5,000  Level Cleveland Center
11:19AM 41.9117 -82.1514 137° Southeast 159 183 5,000  Level Cleveland Center
11:19AM 41.9014 -82.1342 129° Southeast 160 184 5,000  Level Cleveland Center
11:20AM 41.8853 -82.1117 134° Southeast 164 189 5,000  Level Cleveland Center
11:20AM 41.8708 -82.0944 138° Southeast 159 183 5,000 -300 Level Cleveland Center
11:21AM 41.8522 -82.0689 134° Southeast 159 183 4,700 -540 Descending Cleveland Center
11:21AM 41.8381 -82.0492 134° Southeast 162 186 4,500 -540 Descending Cleveland Center
11:22AM 41.8194 -82.0236 134° Southeast 159 183 4,200 -540 Descending Cleveland Center
11:22AM 41.8050 -82.0122 150° Southeast 161 185 4,000 -540 Descending Cleveland Center
11:23AM 41.7867 -81.9839 131° Southeast 159 183 3,700 -540 Descending Cleveland Center
11:23AM 41.7744 -81.9725 145° Southeast 155 178 3,500 -540 Descending Cleveland Center
11:24AM 41.7558 -81.9469 134° Southeast 159 183 3,200 -480 Descending Cleveland Center
11:24AM 41.7436 -81.9383 152° Southeast 150 173 3,100 -240 Descending Cleveland Center
11:25AM 41.7250 -81.9131 135° Southeast 153 176 3,000  Descending Cleveland Center
11:25AM 41.7125 -81.9044 153° Southeast 139 160 3,100  Climbing Cleveland Center
11:26AM 41.6900 -81.8761 137° Southeast 128 147 3,000 -120 Descending Cleveland Center
11:27AM 41.6631 -81.8506 145° Southeast 126 145 2,900 -300 Descending Cleveland Center
11:28AM 41.6322 -81.8194 143° Southeast 135 155 2,500 -420 Descending Cleveland Center
11:29AM 41.5992 -81.7908 147° Southeast 140 161 2,100 -420 Descending Cleveland Center
11:30AM 41.5683 -81.7600 143° Southeast 133 153 1,700 -300 Descending Cleveland Center
11:31AM 41.5414 -81.7372 148° Southeast 113 130 1,500 -300 Descending Cleveland Center
11:32AM 41.5167 -81.7200 152° Southeast 82 94 1,100 -360 Descending Cleveland Center
11:34AM 41.5175 -81.6833 137° Southeast  Level Estimated
11:41AM 41.5175 -81.6833 137° Southeast  Level Estimated
11:42AM 41.5175 -81.6833 137° Southeast  Level Estimated